Time;durP1;ratioP1;P1;durP2;ratioP2;P2;SDS_P1;SDS_P2;PMS_P1;PMS_P2;Temp;Humidity;BMP_temperature;BMP_pressure;BME280_temperature;BME280_humidity;BME280_pressure;Samples;Min_cycle;Max_cycle;Signal;HPM_P1;HPM_P2
2023/05/01 00:00:49;;;;;;;9.43;3.53;;;9.10;99.90;;;;;;5019073;28;20069;-74
2023/05/01 00:03:16;;;;;;;5.88;3.65;;;9.10;99.90;;;;;;5032817;28;20496;-73
2023/05/01 00:05:43;;;;;;;6.10;3.42;;;9.00;99.90;;;;;;5032625;28;20104;-73
2023/05/01 00:08:10;;;;;;;7.00;3.28;;;9.00;99.90;;;;;;5015466;28;20076;-73
2023/05/01 00:10:36;;;;;;;6.13;3.95;;;8.90;99.90;;;;;;5013125;28;20033;-73
2023/05/01 00:13:02;;;;;;;6.32;3.35;;;8.90;99.90;;;;;;5031254;28;20049;-73
2023/05/01 00:15:28;;;;;;;5.80;3.38;;;8.90;99.90;;;;;;5007861;28;20046;-73
2023/05/01 00:17:54;;;;;;;5.43;3.40;;;8.90;99.90;;;;;;5029638;28;20049;-73
2023/05/01 00:20:21;;;;;;;5.57;3.28;;;8.80;99.90;;;;;;5030074;28;20061;-73
2023/05/01 00:22:47;;;;;;;6.47;3.22;;;8.80;99.90;;;;;;5030113;28;20049;-73
2023/05/01 00:25:13;;;;;;;8.10;3.47;;;8.80;99.90;;;;;;5030366;28;20526;-73
2023/05/01 00:27:38;;;;;;;5.95;3.00;;;8.70;99.90;;;;;;5030152;28;20057;-73
2023/05/01 00:30:05;;;;;;;6.85;3.35;;;8.70;99.90;;;;;;5029926;28;20072;-73
2023/05/01 00:32:31;;;;;;;5.95;3.42;;;8.70;99.90;;;;;;5011699;28;20045;-73
2023/05/01 00:34:56;;;;;;;7.53;3.65;;;8.60;99.90;;;;;;5030210;28;20095;-73
2023/05/01 00:37:23;;;;;;;6.45;3.95;;;8.60;99.90;;;;;;5012700;28;20121;-73
2023/05/01 00:39:49;;;;;;;6.15;3.80;;;8.60;99.90;;;;;;5012465;28;20070;-73
2023/05/01 00:42:14;;;;;;;4.45;3.70;;;8.60;99.90;;;;;;5026681;28;20038;-73
2023/05/01 00:44:40;;;;;;;7.22;3.70;;;8.60;99.90;;;;;;5028932;28;20038;-73
2023/05/01 00:47:06;;;;;;;4.68;3.92;;;8.50;99.90;;;;;;5028769;28;20137;-73
2023/05/01 00:49:32;;;;;;;8.00;3.70;;;8.50;99.90;;;;;;5029718;28;20042;-73
2023/05/01 00:51:58;;;;;;;7.93;3.33;;;8.50;99.90;;;;;;5011491;28;20077;-73
2023/05/01 00:54:26;;;;;;;5.55;3.38;;;8.40;99.90;;;;;;5030234;28;20030;-73
2023/05/01 00:56:52;;;;;;;7.43;3.63;;;8.50;99.90;;;;;;5013626;28;20045;-73
2023/05/01 00:59:18;;;;;;;6.28;4.28;;;8.40;99.90;;;;;;5031230;28;20080;-72
2023/05/01 01:01:43;;;;;;;6.25;3.35;;;8.40;99.90;;;;;;5009573;28;20085;-70
2023/05/01 01:04:09;;;;;;;8.23;3.55;;;8.30;99.90;;;;;;5008608;28;20516;-71
2023/05/01 01:07:06;;;;;;;6.85;3.60;;;8.30;99.90;;;;;;5007832;28;20048;-70
2023/05/01 01:09:46;;;;;;;6.10;3.70;;;8.30;99.90;;;;;;5008601;28;20053;-70
2023/05/01 01:12:25;;;;;;;6.28;3.83;;;8.20;99.90;;;;;;5021887;28;20136;-70
2023/05/01 01:15:17;;;;;;;6.03;3.72;;;8.10;99.90;;;;;;5007259;28;20042;-70
2023/05/01 01:17:55;;;;;;;5.63;3.58;;;8.10;99.90;;;;;;5005945;28;20045;-70
2023/05/01 01:20:39;;;;;;;6.45;3.63;;;8.00;99.90;;;;;;5021102;28;20130;-70
2023/05/01 01:23:20;;;;;;;7.83;4.07;;;8.00;99.90;;;;;;5010781;28;20277;-70
2023/05/01 01:26:10;;;;;;;6.28;3.10;;;7.90;99.90;;;;;;5027271;28;20296;-70
2023/05/01 01:29:01;;;;;;;5.53;3.60;;;7.90;99.90;;;;;;5011613;28;20049;-70
2023/05/01 01:31:46;;;;;;;8.45;4.03;;;7.90;99.90;;;;;;5027335;28;20053;-70
2023/05/01 01:34:19;;;;;;;;;;;7.90;99.90;;;;;;5010146;28;20045;-70
2023/05/01 01:36:55;;;;;;;7.15;3.35;;;7.80;99.90;;;;;;5010786;28;19924;-70
2023/05/01 01:39:29;;;;;;;7.40;4.40;;;7.80;99.90;;;;;;5026279;28;20073;-70
2023/05/01 01:41:59;;;;;;;10.45;4.82;;;7.80;99.90;;;;;;5027631;28;20464;-70
2023/05/01 01:45:01;;;;;;;6.68;3.75;;;7.80;99.90;;;;;;5010440;28;20072;-70
2023/05/01 01:47:30;;;;;;;7.15;4.32;;;7.80;99.90;;;;;;5004730;28;20415;-70
2023/05/01 01:50:00;;;;;;;5.20;4.15;;;7.80;99.90;;;;;;5027845;28;20108;-70
2023/05/01 01:52:28;;;;;;;7.25;4.40;;;7.80;99.90;;;;;;5025901;28;20051;-70
2023/05/01 01:54:59;;;;;;;7.43;4.45;;;7.70;99.90;;;;;;5027704;28;20046;-70
2023/05/01 01:57:27;;;;;;;7.93;4.60;;;7.80;99.90;;;;;;5010976;28;20080;-70
2023/05/01 01:59:54;;;;;;;8.30;4.88;;;7.70;99.90;;;;;;5014776;28;20141;-70
2023/05/01 02:02:22;;;;;;;7.32;4.65;;;7.70;99.90;;;;;;5024725;28;20053;-70
2023/05/01 02:04:50;;;;;;;7.05;4.85;;;7.70;99.90;;;;;;5027664;28;20053;-69
2023/05/01 02:07:18;;;;;;;6.18;4.57;;;7.70;99.90;;;;;;5027182;28;20054;-69
2023/05/01 02:09:45;;;;;;;7.47;4.85;;;7.70;99.90;;;;;;5027291;28;20045;-69
2023/05/01 02:12:13;;;;;;;10.45;5.10;;;7.70;99.90;;;;;;5026879;28;20072;-69
2023/05/01 02:14:41;;;;;;;7.18;5.85;;;7.60;99.90;;;;;;4994747;28;20049;-69
2023/05/01 02:17:08;;;;;;;9.05;5.18;;;7.60;99.90;;;;;;5025161;28;20041;-69
2023/05/01 02:19:39;;;;;;;8.43;5.13;;;7.60;99.90;;;;;;5009273;28;20044;-69
2023/05/01 02:22:06;;;;;;;6.60;5.13;;;7.60;99.90;;;;;;5020182;28;20550;-69
2023/05/01 02:24:33;;;;;;;6.55;4.70;;;7.60;99.90;;;;;;5025951;28;20543;-70
2023/05/01 02:27:33;;;;;;;9.15;5.30;;;7.50;99.90;;;;;;5008723;28;20037;-70
2023/05/01 02:29:59;;;;;;;7.40;5.20;;;7.50;99.90;;;;;;4993973;28;20068;-70
2023/05/01 02:32:25;;;;;;;7.63;5.15;;;7.50;99.90;;;;;;5025320;28;20046;-70
2023/05/01 02:34:51;;;;;;;9.77;5.53;;;7.40;99.90;;;;;;4993939;28;20037;-70
2023/05/01 02:37:16;;;;;;;8.45;5.72;;;7.50;99.90;;;;;;5010482;28;20065;-70
2023/05/01 02:39:42;;;;;;;7.43;5.10;;;7.40;99.90;;;;;;5026887;28;20125;-69
2023/05/01 02:42:10;;;;;;;5.93;5.00;;;7.40;99.90;;;;;;4993588;28;20041;-69
2023/05/01 02:45:00;;;;;;;7.20;5.22;;;7.40;99.90;;;;;;5009406;28;20449;-69
2023/05/01 02:47:29;;;;;;;7.35;5.30;;;7.40;99.90;;;;;;5007941;28;20057;-69
2023/05/01 02:49:56;;;;;;;10.45;5.20;;;7.30;99.90;;;;;;5010218;28;20057;-69
2023/05/01 02:52:22;;;;;;;7.57;5.57;;;7.30;99.90;;;;;;5004887;28;20050;-69
2023/05/01 02:54:49;;;;;;;7.55;5.25;;;7.30;99.90;;;;;;5026535;28;20046;-69
2023/05/01 02:57:17;;;;;;;7.55;5.18;;;7.30;99.90;;;;;;5009945;28;20037;-70
2023/05/01 02:59:43;;;;;;;9.65;5.28;;;7.30;99.90;;;;;;5010662;28;20520;-70
2023/05/01 03:02:08;;;;;;;10.93;5.68;;;7.20;99.90;;;;;;5025907;28;20041;-70
2023/05/01 03:04:34;;;;;;;8.55;5.68;;;7.20;99.90;;;;;;5007974;28;20771;-69
2023/05/01 03:07:00;;;;;;;9.38;6.03;;;7.20;99.90;;;;;;5026401;28;20505;-70
2023/05/01 03:09:26;;;;;;;10.15;5.35;;;7.20;99.90;;;;;;5026157;28;20037;-70
2023/05/01 03:11:51;;;;;;;9.00;5.60;;;7.20;99.90;;;;;;5011130;28;20061;-70
2023/05/01 03:14:17;;;;;;;7.18;5.60;;;7.10;99.90;;;;;;5025486;28;20034;-70
2023/05/01 03:16:43;;;;;;;10.85;5.82;;;7.10;99.90;;;;;;5016452;28;20041;-69
2023/05/01 03:19:09;;;;;;;11.02;5.93;;;7.10;99.90;;;;;;5025046;28;20129;-69
2023/05/01 03:21:35;;;;;;;8.95;6.10;;;7.10;99.90;;;;;;5008155;28;20107;-69
2023/05/01 03:24:02;;;;;;;11.35;5.80;;;7.10;99.90;;;;;;5026072;28;20046;-69
2023/05/01 03:26:28;;;;;;;10.63;5.93;;;7.10;99.90;;;;;;5008945;28;20653;-69
2023/05/01 03:28:54;;;;;;;7.28;6.15;;;7.00;99.90;;;;;;5025105;28;20103;-69
2023/05/01 03:31:20;;;;;;;10.30;5.72;;;7.00;99.90;;;;;;5008581;28;20077;-69
2023/05/01 03:33:46;;;;;;;8.57;5.75;;;7.00;99.90;;;;;;4993176;28;20104;-69
2023/05/01 03:36:12;;;;;;;9.85;5.40;;;7.00;99.90;;;;;;5025564;28;20049;-70
2023/05/01 03:38:38;;;;;;;8.85;5.28;;;7.00;99.90;;;;;;4993205;28;20145;-69
2023/05/01 03:41:04;;;;;;;9.90;5.82;;;6.90;99.90;;;;;;5025680;28;20102;-69
2023/05/01 03:43:30;;;;;;;10.80;6.68;;;6.90;99.90;;;;;;5009654;28;20457;-69
2023/05/01 03:45:57;;;;;;;8.23;6.20;;;6.90;99.90;;;;;;5009430;28;20136;-69
2023/05/01 03:48:23;;;;;;;9.13;6.70;;;6.90;99.90;;;;;;5024313;28;20042;-69
2023/05/01 03:50:49;;;;;;;7.82;5.90;;;6.80;99.90;;;;;;5025798;28;20060;-69
2023/05/01 03:53:15;;;;;;;12.07;6.72;;;6.80;99.90;;;;;;4999445;28;20049;-69
2023/05/01 03:55:41;;;;;;;10.43;6.55;;;6.80;99.90;;;;;;5025825;28;20054;-69
2023/05/01 03:58:07;;;;;;;9.32;6.53;;;6.80;99.90;;;;;;5024089;28;20095;-69
2023/05/01 04:00:33;;;;;;;9.35;7.05;;;6.80;99.90;;;;;;5025492;28;20046;-70
2023/05/01 04:02:59;;;;;;;6.85;5.93;;;6.80;99.90;;;;;;5008080;28;20042;-69
2023/05/01 04:05:25;;;;;;;8.82;6.57;;;6.70;99.90;;;;;;5009499;28;20439;-69
2023/05/01 04:07:50;;;;;;;11.95;6.90;;;6.70;99.90;;;;;;5024679;28;20084;-69
2023/05/01 04:10:16;;;;;;;9.15;6.93;;;6.70;99.90;;;;;;5009245;28;20049;-69
2023/05/01 04:12:43;;;;;;;10.10;6.90;;;6.60;99.90;;;;;;5008495;28;20119;-69
2023/05/01 04:15:09;;;;;;;12.70;7.07;;;6.70;99.90;;;;;;5009645;28;20045;-69
2023/05/01 04:17:35;;;;;;;9.65;6.68;;;6.60;99.90;;;;;;5022457;28;20061;-70
2023/05/01 04:20:03;;;;;;;8.95;6.88;;;6.60;99.90;;;;;;5008342;28;20057;-69
2023/05/01 04:22:29;;;;;;;13.50;7.50;;;6.60;99.90;;;;;;5008314;28;20125;-70
2023/05/01 04:24:55;;;;;;;10.45;6.55;;;6.60;99.90;;;;;;5023360;28;20038;-69
2023/05/01 04:27:21;;;;;;;13.90;7.00;;;6.60;99.90;;;;;;5025273;28;20120;-69
2023/05/01 04:29:46;;;;;;;13.77;6.88;;;6.60;99.90;;;;;;5025064;28;20038;-69
2023/05/01 04:32:12;;;;;;;10.45;6.95;;;6.60;99.90;;;;;;5023943;28;20597;-70
2023/05/01 04:34:38;;;;;;;11.45;6.30;;;6.60;99.90;;;;;;5008781;28;20037;-70
2023/05/01 04:37:06;;;;;;;11.93;6.65;;;6.60;99.90;;;;;;5008391;28;20133;-69
2023/05/01 04:39:32;;;;;;;11.65;7.05;;;6.70;99.90;;;;;;5008813;28;20053;-70
2023/05/01 04:41:57;;;;;;;7.93;6.85;;;6.70;99.90;;;;;;5007704;28;20056;-69
2023/05/01 04:44:23;;;;;;;10.68;6.93;;;6.70;99.90;;;;;;5018366;28;20042;-70
2023/05/01 04:46:49;;;;;;;10.25;6.78;;;6.70;99.90;;;;;;5007990;28;20042;-70
2023/05/01 04:49:15;;;;;;;16.77;8.43;;;6.80;99.90;;;;;;5022745;28;20053;-69
2023/05/01 04:51:41;;;;;;;9.45;7.38;;;6.80;99.90;;;;;;5025048;28;20115;-69
2023/05/01 04:54:06;;;;;;;11.60;6.57;;;6.80;99.90;;;;;;5024035;28;20038;-69
2023/05/01 04:56:32;;;;;;;11.50;6.53;;;6.90;99.90;;;;;;5026699;28;20053;-70
2023/05/01 04:58:58;;;;;;;9.13;6.70;;;7.00;99.90;;;;;;5028444;28;20083;-70
2023/05/01 05:01:23;;;;;;;17.15;7.22;;;7.00;99.90;;;;;;5028365;28;20068;-69
2023/05/01 05:03:49;;;;;;;12.60;6.82;;;7.00;99.90;;;;;;4996066;28;20034;-69
2023/05/01 05:06:15;;;;;;;10.65;7.00;;;7.10;99.90;;;;;;5028841;28;20038;-69
2023/05/01 05:08:41;;;;;;;11.63;6.63;;;7.10;99.90;;;;;;5027999;28;20037;-69
2023/05/01 05:11:07;;;;;;;11.43;7.28;;;7.10;99.90;;;;;;5029218;28;20490;-69
2023/05/01 05:13:32;;;;;;;13.50;7.38;;;7.20;99.90;;;;;;5011671;28;20044;-69
2023/05/01 05:15:58;;;;;;;11.07;6.72;;;7.30;99.90;;;;;;5028985;28;20066;-69
2023/05/01 05:18:24;;;;;;;11.20;6.60;;;7.30;99.90;;;;;;5026412;28;20384;-69
2023/05/01 05:20:50;;;;;;;8.32;6.78;;;7.40;99.90;;;;;;5012224;28;20050;-69
2023/05/01 05:23:15;;;;;;;9.43;7.15;;;7.40;99.90;;;;;;5028129;28;20041;-69
2023/05/01 05:25:41;;;;;;;11.43;6.53;;;7.50;99.90;;;;;;5022485;28;20240;-70
2023/05/01 05:28:07;;;;;;;9.80;6.53;;;7.60;99.90;;;;;;5028562;28;20073;-69
2023/05/01 05:30:33;;;;;;;13.68;6.57;;;7.70;99.90;;;;;;5027817;28;20042;-69
2023/05/01 05:32:59;;;;;;;9.50;6.20;;;7.70;99.90;;;;;;5027354;28;20073;-69
2023/05/01 05:35:24;;;;;;;13.85;7.00;;;7.80;99.90;;;;;;4995274;28;20038;-69
2023/05/01 05:37:50;;;;;;;11.80;7.32;;;7.90;99.90;;;;;;5012923;28;20034;-70
2023/05/01 05:40:16;;;;;;;21.00;14.25;;;8.00;99.90;;;;;;5028276;28;20699;-69
2023/05/01 05:42:42;;;;;;;12.30;7.20;;;8.00;99.90;;;;;;5011690;28;20077;-70
2023/05/01 05:45:08;;;;;;;12.68;8.00;;;8.10;99.90;;;;;;5027444;28;20069;-70
2023/05/01 05:47:34;;;;;;;8.82;6.75;;;8.20;99.90;;;;;;5027374;28;20045;-69
2023/05/01 05:50:00;;;;;;;12.15;6.55;;;8.30;99.90;;;;;;5026263;28;20399;-70
2023/05/01 05:52:25;;;;;;;9.32;6.43;;;8.50;99.90;;;;;;5027739;28;20049;-70
2023/05/01 05:54:51;;;;;;;9.50;6.00;;;8.50;99.90;;;;;;5025760;28;20041;-70
2023/05/01 05:57:17;;;;;;;11.52;7.82;;;8.60;99.90;;;;;;5018724;28;20070;-70
2023/05/01 05:59:43;;;;;;;10.88;6.82;;;8.80;99.90;;;;;;5026784;28;20410;-69
2023/05/01 06:02:09;;;;;;;11.32;6.22;;;8.90;99.90;;;;;;5026417;28;20046;-70
2023/05/01 06:04:35;;;;;;;7.68;6.28;;;8.90;99.90;;;;;;5026055;28;20064;-70
2023/05/01 06:07:00;;;;;;;9.02;6.72;;;9.10;99.90;;;;;;5010665;28;20070;-70
2023/05/01 06:09:26;;;;;;;11.48;6.38;;;9.20;99.90;;;;;;4998582;28;20058;-70
2023/05/01 06:11:52;;;;;;;12.82;5.78;;;9.30;99.90;;;;;;5026723;28;20541;-70
2023/05/01 06:14:17;;;;;;;10.07;6.30;;;9.40;99.90;;;;;;5027384;28;20041;-70
2023/05/01 06:16:43;;;;;;;10.57;6.15;;;9.60;99.90;;;;;;5025313;28;20502;-70
2023/05/01 06:19:11;;;;;;;10.07;5.78;;;9.80;99.90;;;;;;5024633;28;20045;-70
2023/05/01 06:21:36;;;;;;;12.43;5.57;;;10.00;99.90;;;;;;5026498;28;20056;-70
2023/05/01 06:24:02;;;;;;;13.05;5.72;;;10.20;99.90;;;;;;5026652;28;20465;-71
2023/05/01 06:26:28;;;;;;;10.43;5.75;;;10.40;99.90;;;;;;5010127;28;20064;-70
2023/05/01 06:28:54;;;;;;;9.70;6.05;;;10.50;99.90;;;;;;5026795;28;20049;-70
2023/05/01 06:31:20;;;;;;;10.70;5.40;;;10.70;99.90;;;;;;5027005;28;20072;-70
2023/05/01 06:33:46;;;;;;;9.98;5.05;;;10.80;99.90;;;;;;5026989;28;20046;-69
2023/05/01 06:36:12;;;;;;;8.93;5.20;;;10.90;99.90;;;;;;5010716;28;20131;-70
2023/05/01 06:38:39;;;;;;;8.05;5.38;;;10.90;99.90;;;;;;5010207;28;20126;-70
2023/05/01 06:41:05;;;;;;;8.00;4.78;;;11.10;99.90;;;;;;5026197;28;20062;-70
2023/05/01 06:43:32;;;;;;;9.23;5.05;;;11.10;99.90;;;;;;5027310;28;20077;-71
2023/05/01 06:45:58;;;;;;;6.70;4.82;;;11.30;99.90;;;;;;5026758;28;20046;-71
2023/05/01 06:48:24;;;;;;;7.60;4.35;;;11.40;99.90;;;;;;5019202;28;20096;-71
2023/05/01 06:50:49;;;;;;;7.45;4.90;;;11.50;99.90;;;;;;5008959;28;20049;-71
2023/05/01 06:53:15;;;;;;;10.55;4.63;;;11.50;99.90;;;;;;5026643;28;20037;-71
2023/05/01 06:55:41;;;;;;;11.60;5.30;;;11.70;99.90;;;;;;5024260;28;20060;-71
2023/05/01 06:58:07;;;;;;;11.00;5.10;;;11.70;99.90;;;;;;5026676;28;20042;-71
2023/05/01 07:00:36;;;;;;;7.38;4.53;;;11.90;99.90;;;;;;5026592;28;20129;-72
2023/05/01 07:03:03;;;;;;;9.30;4.75;;;12.00;99.90;;;;;;5025420;28;20060;-71
2023/05/01 07:05:29;;;;;;;7.05;4.55;;;12.10;99.90;;;;;;5026692;28;20045;-71
2023/05/01 07:07:55;;;;;;;12.10;5.53;;;12.20;99.90;;;;;;5010583;28;20046;-71
2023/05/01 07:10:20;;;;;;;7.65;4.82;;;12.30;99.90;;;;;;5025840;28;20052;-72
2023/05/01 07:12:46;;;;;;;7.50;4.60;;;12.40;99.90;;;;;;5026467;28;20042;-71
2023/05/01 07:15:15;;;;;;;9.15;4.90;;;12.50;99.90;;;;;;5026931;28;20042;-71
2023/05/01 07:17:40;;;;;;;10.57;5.43;;;12.60;99.90;;;;;;5024998;28;20081;-72
2023/05/01 07:20:07;;;;;;;9.00;4.90;;;12.70;99.90;;;;;;5009557;28;20212;-72
2023/05/01 07:22:33;;;;;;;10.23;5.28;;;12.90;99.90;;;;;;4993604;28;20046;-72
2023/05/01 07:25:00;;;;;;;6.68;4.22;;;13.00;99.90;;;;;;5023988;28;20097;-72
2023/05/01 07:27:27;;;;;;;8.50;4.93;;;13.20;99.90;;;;;;5026281;28;20061;-72
2023/05/01 07:29:56;;;;;;;7.65;4.63;;;13.20;99.90;;;;;;5026217;28;20113;-72
2023/05/01 07:32:22;;;;;;;6.35;4.18;;;13.20;99.90;;;;;;5025037;28;20049;-72
2023/05/01 07:34:47;;;;;;;8.73;4.50;;;13.20;99.90;;;;;;4988092;28;20038;-72
2023/05/01 07:37:13;;;;;;;8.88;4.80;;;13.20;99.90;;;;;;5009372;28;20414;-72
2023/05/01 07:39:39;;;;;;;9.35;5.00;;;13.20;99.90;;;;;;4993029;28;20038;-72
2023/05/01 07:42:05;;;;;;;7.45;4.55;;;13.30;99.90;;;;;;5009555;28;20052;-72
2023/05/01 07:44:31;;;;;;;8.40;4.28;;;13.30;99.90;;;;;;5024274;28;20042;-72
2023/05/01 07:47:04;;;;;;;13.02;4.90;;;13.30;99.90;;;;;;5008643;28;20116;-72
2023/05/01 07:49:36;;;;;;;13.18;4.82;;;13.30;99.90;;;;;;5025443;28;20049;-72
2023/05/01 07:52:02;;;;;;;7.03;5.05;;;13.30;99.90;;;;;;5025639;28;20397;-72
2023/05/01 07:54:27;;;;;;;6.90;4.63;;;13.30;99.90;;;;;;5025924;28;20369;-72
2023/05/01 07:56:53;;;;;;;9.57;4.90;;;13.50;99.90;;;;;;5025471;28;20077;-72
2023/05/01 07:59:19;;;;;;;8.10;4.75;;;13.60;99.90;;;;;;5008949;28;20540;-72
2023/05/01 08:01:44;;;;;;;9.43;5.40;;;13.90;99.90;;;;;;5008531;28;20478;-72
2023/05/01 08:04:10;;;;;;;6.85;4.55;;;14.20;99.90;;;;;;5025847;28;20065;-73
2023/05/01 08:06:36;;;;;;;7.75;4.18;;;14.50;99.90;;;;;;5024977;28;20497;-73
2023/05/01 08:09:01;;;;;;;8.55;4.60;;;14.90;99.90;;;;;;5006983;28;20438;-73
2023/05/01 08:11:28;;;;;;;5.88;3.97;;;15.20;99.90;;;;;;5008872;28;20045;-73
2023/05/01 08:13:54;;;;;;;8.90;4.63;;;15.60;99.90;;;;;;5008601;28;20387;-73
2023/05/01 08:16:20;;;;;;;8.45;4.53;;;16.10;99.90;;;;;;5019010;28;20040;-73
2023/05/01 08:18:45;;;;;;;8.55;4.03;;;16.50;99.90;;;;;;5007295;28;20406;-74
2023/05/01 08:21:11;;;;;;;7.70;4.30;;;16.80;99.90;;;;;;5009335;28;20056;-74
2023/05/01 08:23:37;;;;;;;9.25;4.32;;;17.30;99.90;;;;;;5026291;28;20037;-74
2023/05/01 08:26:03;;;;;;;8.48;4.90;;;17.70;99.90;;;;;;5024627;28;20050;-74
2023/05/01 08:28:29;;;;;;;7.28;3.70;;;18.20;99.90;;;;;;5009242;28;20048;-74
2023/05/01 08:30:55;;;;;;;9.30;4.50;;;18.50;99.90;;;;;;5025091;28;20053;-75
2023/05/01 08:33:20;;;;;;;8.40;4.07;;;18.70;99.90;;;;;;5009582;28;20125;-75
2023/05/01 08:35:48;;;;;;;8.38;4.38;;;18.90;99.20;;;;;;5025820;28;20076;-75
2023/05/01 08:38:14;;;;;;;6.05;3.72;;;19.40;99.20;;;;;;5026226;28;20038;-75
2023/05/01 08:40:45;;;;;;;7.22;3.75;;;19.70;97.50;;;;;;5025416;28;20084;-75
2023/05/01 08:43:12;;;;;;;8.07;4.35;;;19.80;95.80;;;;;;5025614;28;20081;-75
2023/05/01 08:45:38;;;;;;;7.40;3.50;;;20.00;94.70;;;;;;5009573;28;20045;-76
2023/05/01 08:48:09;;;;;;;6.13;3.17;;;20.30;94.20;;;;;;5009640;28;20115;-75
2023/05/01 08:50:37;;;;;;;9.13;3.63;;;20.50;91.60;;;;;;5010956;28;20042;-76
2023/05/01 08:53:04;;;;;;;6.95;3.40;;;20.70;91.00;;;;;;5010530;28;20121;-76
2023/05/01 08:55:32;;;;;;;6.78;3.38;;;20.50;84.60;;;;;;4993885;28;20034;-75
2023/05/01 08:57:58;;;;;;;5.85;3.42;;;20.30;83.80;;;;;;5026984;28;20493;-75
2023/05/01 09:00:24;;;;;;;5.95;3.15;;;20.10;80.00;;;;;;5010036;28;20084;-75
2023/05/01 09:02:51;;;;;;;6.07;3.25;;;20.10;79.30;;;;;;5019694;28;20077;-76
2023/05/01 09:05:18;;;;;;;5.88;3.00;;;20.10;79.00;;;;;;5007680;28;20052;-76
2023/05/01 09:07:45;;;;;;;5.97;3.13;;;20.30;82.30;;;;;;5026484;28;20045;-76
2023/05/01 09:10:17;;;;;;;5.30;3.15;;;20.70;84.10;;;;;;5025057;28;20509;-76
2023/05/01 09:12:46;;;;;;;6.20;2.92;;;20.90;75.00;;;;;;5025695;28;20103;-76
2023/05/01 09:15:12;;;;;;;7.70;3.25;;;20.90;76.90;;;;;;4996569;28;20053;-74
2023/05/01 09:17:38;;;;;;;6.40;3.15;;;21.00;76.90;;;;;;5025111;28;20041;-74
2023/05/01 09:20:05;;;;;;;6.75;3.55;;;21.50;78.80;;;;;;5027198;28;20073;-75
2023/05/01 09:22:34;;;;;;;6.13;3.33;;;21.70;74.20;;;;;;5026786;28;20376;-76
2023/05/01 09:25:00;;;;;;;5.88;3.45;;;21.80;74.30;;;;;;5025964;28;20042;-75
2023/05/01 09:27:26;;;;;;;7.57;3.38;;;22.00;72.60;;;;;;5010556;28;20030;-75
2023/05/01 09:29:52;;;;;;;5.13;2.85;;;22.10;72.20;;;;;;5027151;28;20065;-75
2023/05/01 09:32:23;;;;;;;6.15;3.20;;;22.40;71.00;;;;;;5009832;28;20034;-76
2023/05/01 09:34:50;;;;;;;5.10;2.60;;;22.50;67.90;;;;;;5027419;28;20038;-75
2023/05/01 09:37:30;;;;;;;6.95;3.17;;;22.70;68.30;;;;;;5010426;28;20482;-76
2023/05/01 09:40:13;;;;;;;5.38;2.35;;;22.70;64.10;;;;;;5002006;28;20038;-77
2023/05/01 09:42:40;;;;;;;4.20;1.60;;;22.80;66.50;;;;;;5010225;28;20038;-77
2023/05/01 09:45:14;;;;;;;3.95;1.45;;;22.60;59.90;;;;;;5030649;28;20133;-76
2023/05/01 09:47:45;;;;;;;3.42;1.20;;;22.40;57.60;;;;;;5013318;28;20417;-77
2023/05/01 09:50:28;;;;;;;5.15;1.83;;;22.30;59.20;;;;;;5029422;28;20429;-77
2023/05/01 09:52:54;;;;;;;3.53;1.35;;;22.30;58.80;;;;;;5009908;28;20128;-76
2023/05/01 09:55:22;;;;;;;5.38;1.75;;;22.40;61.50;;;;;;5012435;28;20448;-76
2023/05/01 09:57:48;;;;;;;3.58;1.40;;;22.40;59.60;;;;;;5028239;28;20040;-77
2023/05/01 10:00:15;;;;;;;4.05;1.30;;;22.50;59.80;;;;;;5012106;28;20124;-77
2023/05/01 10:02:43;;;;;;;3.72;1.65;;;22.50;58.00;;;;;;5027100;28;20341;-77
2023/05/01 10:05:10;;;;;;;4.53;1.77;;;22.60;59.90;;;;;;5027579;28;20465;-77
2023/05/01 10:07:37;;;;;;;3.58;1.70;;;22.40;58.00;;;;;;5024604;28;20084;-77
2023/05/01 10:10:22;;;;;;;4.18;1.73;;;22.10;57.90;;;;;;5023638;28;20050;-77
2023/05/01 10:12:48;;;;;;;5.53;1.60;;;21.90;56.60;;;;;;4994574;28;20073;-76
2023/05/01 10:15:15;;;;;;;4.60;2.10;;;21.70;59.60;;;;;;4995398;28;20108;-76
2023/05/01 10:17:42;;;;;;;5.80;2.20;;;22.00;61.70;;;;;;5009902;28;20038;-77
2023/05/01 10:20:11;;;;;;;4.80;1.90;;;22.20;60.30;;;;;;5008423;28;20038;-77
2023/05/01 10:22:37;;;;;;;4.38;2.40;;;22.30;59.50;;;;;;4995952;28;20082;-77
2023/05/01 10:25:07;;;;;;;8.90;2.55;;;22.40;60.50;;;;;;5027572;28;20096;-77
2023/05/01 10:27:34;;;;;;;8.45;2.30;;;22.50;61.40;;;;;;5026463;28;20340;-77
2023/05/01 10:30:06;;;;;;;6.05;2.20;;;22.70;60.50;;;;;;5027977;28;20045;-77
2023/05/01 10:32:32;;;;;;;5.85;1.95;;;22.70;57.90;;;;;;5024714;28;20048;-77
2023/05/01 10:35:20;;;;;;;4.20;1.70;;;22.60;58.50;;;;;;5028047;28;20042;-77
2023/05/01 10:37:48;;;;;;;8.38;2.15;;;22.90;59.70;;;;;;4995188;28;20048;-78
2023/05/01 10:40:39;;;;;;;3.35;1.83;;;23.00;58.30;;;;;;4992079;28;20449;-76
2023/05/01 10:43:30;;;;;;;3.47;1.75;;;23.30;57.30;;;;;;5008807;28;20102;-77
2023/05/01 10:46:17;;;;;;;2.17;1.25;;;23.20;55.30;;;;;;4988943;28;20393;-77
2023/05/01 10:48:43;;;;;;;1.88;0.40;;;23.00;53.90;;;;;;5017311;28;20072;-77
2023/05/01 10:51:10;;;;;;;1.38;0.40;;;22.90;56.50;;;;;;5010444;28;20093;-77
2023/05/01 10:53:36;;;;;;;2.45;0.55;;;22.90;57.30;;;;;;5026557;28;20053;-77
2023/05/01 10:56:04;;;;;;;1.77;0.65;;;22.90;55.80;;;;;;5010629;28;20121;-77
2023/05/01 10:58:37;;;;;;;3.25;0.90;;;23.00;54.60;;;;;;5027434;28;20042;-77
2023/05/01 11:01:31;;;;;;;4.53;0.75;;;23.20;52.40;;;;;;4994986;28;20569;-77
2023/05/01 11:03:58;;;;;;;2.80;0.77;;;23.20;53.20;;;;;;5026259;28;20485;-77
2023/05/01 11:06:24;;;;;;;2.67;0.80;;;23.30;54.00;;;;;;5009889;28;20061;-77
2023/05/01 11:08:50;;;;;;;3.45;0.50;;;23.30;53.60;;;;;;4994728;28;20042;-77
2023/05/01 11:11:22;;;;;;;2.80;0.55;;;23.10;53.40;;;;;;4993652;28;20049;-76
2023/05/01 11:13:58;;;;;;;2.47;0.50;;;23.10;53.40;;;;;;5001384;28;20045;-77
2023/05/01 11:16:40;;;;;;;1.77;0.65;;;23.10;55.10;;;;;;5006939;28;20065;-77
2023/05/01 11:19:26;;;;;;;1.83;0.55;;;23.10;55.30;;;;;;5025638;28;20406;-77
2023/05/01 11:21:53;;;;;;;3.30;0.60;;;23.20;50.90;;;;;;4987079;28;20050;-76
2023/05/01 11:24:18;;;;;;;4.20;0.63;;;23.10;54.30;;;;;;5022549;28;20046;-77
2023/05/01 11:26:44;;;;;;;2.20;0.60;;;23.30;53.00;;;;;;5023117;28;20505;-77
2023/05/01 11:29:11;;;;;;;2.58;0.68;;;23.50;53.00;;;;;;5026462;28;20253;-76
2023/05/01 11:31:38;;;;;;;2.92;0.60;;;23.80;54.00;;;;;;5007776;28;20581;-76
2023/05/01 11:34:05;;;;;;;1.42;0.40;;;24.00;52.10;;;;;;5009924;28;20046;-75
2023/05/01 11:36:48;;;;;;;2.85;0.82;;;24.00;52.10;;;;;;5024061;28;20052;-76
2023/05/01 11:39:16;;;;;;;1.65;0.40;;;23.40;48.80;;;;;;4979585;28;20224;-75
2023/05/01 11:41:42;;;;;;;3.80;0.50;;;23.00;50.80;;;;;;4991760;28;20566;-75
2023/05/01 11:44:10;;;;;;;3.80;0.60;;;22.70;49.70;;;;;;5025964;28;20100;-75
2023/05/01 11:46:36;;;;;;;1.65;0.40;;;22.40;51.00;;;;;;4991816;28;20042;-75
2023/05/01 11:49:02;;;;;;;2.40;0.50;;;22.40;52.90;;;;;;5025746;28;20034;-75
2023/05/01 11:51:29;;;;;;;1.48;0.47;;;22.30;51.20;;;;;;5008806;28;20440;-75
2023/05/01 11:54:02;;;;;;;2.08;0.75;;;22.20;52.50;;;;;;5018856;28;20466;-75
2023/05/01 11:56:29;;;;;;;2.13;0.60;;;22.00;53.70;;;;;;5022466;28;20046;-75
2023/05/01 11:58:56;;;;;;;2.30;0.60;;;22.00;53.50;;;;;;5025342;28;20050;-75
2023/05/01 12:01:36;;;;;;;0.88;0.35;;;21.80;52.50;;;;;;5023711;28;20037;-75
2023/05/01 12:04:03;;;;;;;2.25;0.60;;;21.60;52.00;;;;;;5004435;28;20757;-75
2023/05/01 12:06:42;;;;;;;2.65;0.57;;;21.40;52.80;;;;;;5017780;28;20046;-75
2023/05/01 12:09:17;;;;;;;1.88;0.40;;;21.40;53.50;;;;;;5006850;28;20052;-75
2023/05/01 12:11:44;;;;;;;2.22;0.50;;;21.30;53.00;;;;;;5005669;28;20242;-70
2023/05/01 12:14:10;;;;;;;3.03;0.60;;;21.30;53.10;;;;;;5024150;28;20081;-68
2023/05/01 12:16:39;;;;;;;2.67;0.60;;;21.40;54.30;;;;;;5018808;28;20461;-70
2023/05/01 12:19:05;;;;;;;2.25;0.68;;;21.60;55.10;;;;;;5007115;28;20036;-70
2023/05/01 12:21:31;;;;;;;2.25;0.70;;;21.60;54.30;;;;;;5002984;28;20060;-70
2023/05/01 12:24:14;;;;;;;3.00;0.77;;;21.70;54.30;;;;;;5001191;28;20049;-70
2023/05/01 12:26:41;;;;;;;4.13;0.80;;;21.90;53.30;;;;;;5005814;28;20172;-70
2023/05/01 12:29:07;;;;;;;2.88;0.85;;;22.00;53.50;;;;;;4999768;28;20409;-70
2023/05/01 12:31:34;;;;;;;5.40;1.20;;;22.40;54.50;;;;;;4986982;28;20042;-70
2023/05/01 12:34:05;;;;;;;3.65;1.10;;;23.00;54.00;;;;;;5007215;28;20057;-71
2023/05/01 12:36:35;;;;;;;3.15;1.27;;;23.40;54.80;;;;;;5012950;28;20104;-70
2023/05/01 12:39:09;;;;;;;3.35;1.30;;;23.50;52.70;;;;;;5004764;28;20034;-70
2023/05/01 12:41:38;;;;;;;2.67;1.15;;;23.50;50.90;;;;;;5007481;28;20033;-69
2023/05/01 12:44:19;;;;;;;2.22;1.20;;;23.30;52.60;;;;;;5004342;28;20125;-69
2023/05/01 12:46:55;;;;;;;3.47;1.10;;;23.20;53.10;;;;;;5004951;28;20474;-70
2023/05/01 12:49:22;;;;;;;3.83;1.40;;;23.30;51.80;;;;;;5004420;28;20085;-69
2023/05/01 12:51:49;;;;;;;3.33;1.63;;;23.30;53.30;;;;;;5007341;28;20038;-68
2023/05/01 12:54:38;;;;;;;2.22;1.30;;;23.20;52.50;;;;;;4989970;28;20052;-69
2023/05/01 12:57:13;;;;;;;2.58;1.42;;;23.20;54.10;;;;;;5020193;28;20346;-69